createdAt,value
2017-08-30T00:00:31.595Z,0
2017-08-30T00:01:31.613Z,0
2017-08-30T00:02:31.603Z,0
2017-08-30T00:03:31.738Z,0
2017-08-30T00:04:31.573Z,0
2017-08-30T00:05:31.587Z,0
2017-08-30T00:06:31.576Z,0
2017-08-30T00:07:31.575Z,0
2017-08-30T00:08:31.668Z,0
2017-08-30T00:09:31.584Z,0
2017-08-30T00:10:31.589Z,0
2017-08-30T00:11:31.679Z,0
2017-08-30T00:12:31.635Z,0
2017-08-30T00:13:31.616Z,0
2017-08-30T00:14:31.637Z,0
2017-08-30T00:15:31.675Z,0
2017-08-30T00:16:31.684Z,0
2017-08-30T00:17:31.685Z,0
2017-08-30T00:18:31.686Z,0
2017-08-30T00:19:31.622Z,0
2017-08-30T00:20:31.638Z,0
2017-08-30T00:21:31.622Z,0
2017-08-30T00:22:31.613Z,0
2017-08-30T00:23:31.609Z,0
2017-08-30T00:24:31.647Z,0
2017-08-30T00:25:31.609Z,0
2017-08-30T00:26:31.586Z,0
2017-08-30T00:27:31.700Z,0
2017-08-30T00:28:31.648Z,0
2017-08-30T00:29:31.643Z,0
2017-08-30T00:30:31.612Z,0
2017-08-30T00:31:31.587Z,0
2017-08-30T00:32:31.648Z,0
2017-08-30T00:33:31.649Z,0
2017-08-30T00:34:31.591Z,0
2017-08-30T00:35:31.628Z,0
2017-08-30T00:36:31.626Z,0
2017-08-30T00:37:31.622Z,0
2017-08-30T00:38:31.631Z,0
2017-08-30T00:39:31.621Z,0
2017-08-30T00:40:31.598Z,0
2017-08-30T00:41:31.704Z,0
2017-08-30T00:42:31.689Z,0
2017-08-30T00:43:31.690Z,0
2017-08-30T00:44:31.670Z,0
2017-08-30T00:45:31.623Z,0
2017-08-30T00:46:31.664Z,0
2017-08-30T00:47:31.588Z,0
2017-08-30T00:48:31.616Z,0
2017-08-30T00:49:31.621Z,0
2017-08-30T00:50:31.667Z,0
2017-08-30T00:51:31.609Z,0
2017-08-30T00:52:31.579Z,0
2017-08-30T00:53:31.605Z,0
2017-08-30T00:54:31.624Z,0
2017-08-30T00:55:31.667Z,0
2017-08-30T00:56:31.615Z,0
2017-08-30T00:57:31.635Z,0
2017-08-30T00:58:31.631Z,0
2017-08-30T00:59:31.628Z,0
2017-08-30T01:00:31.608Z,0
2017-08-30T01:01:31.633Z,0
2017-08-30T01:02:31.608Z,0
2017-08-30T01:03:31.634Z,0
2017-08-30T01:04:31.608Z,0
2017-08-30T01:05:31.634Z,0
2017-08-30T01:06:31.641Z,0
2017-08-30T01:07:31.637Z,0
2017-08-30T01:08:31.610Z,0
2017-08-30T01:09:31.636Z,0
2017-08-30T01:10:31.610Z,0
2017-08-30T01:11:31.673Z,0
2017-08-30T01:12:31.675Z,0
2017-08-30T01:13:31.641Z,0
2017-08-30T01:14:31.613Z,0
2017-08-30T01:15:31.618Z,0
2017-08-30T01:16:31.644Z,0
2017-08-30T01:17:31.715Z,0
2017-08-30T01:18:31.717Z,0
2017-08-30T01:19:31.659Z,0
2017-08-30T01:20:31.712Z,0
2017-08-30T01:21:31.713Z,0
2017-08-30T01:22:31.656Z,0
2017-08-30T01:23:31.621Z,0
2017-08-30T01:24:31.675Z,0
2017-08-30T01:25:31.651Z,0
2017-08-30T01:26:31.665Z,0
2017-08-30T01:27:31.696Z,0
2017-08-30T01:28:31.650Z,0
2017-08-30T01:29:31.716Z,0
2017-08-30T01:30:31.680Z,0
2017-08-30T01:31:31.638Z,0
2017-08-30T01:32:31.651Z,0
2017-08-30T01:33:31.715Z,0
2017-08-30T01:34:31.674Z,0
2017-08-30T01:35:31.628Z,0
2017-08-30T01:36:31.614Z,0
2017-08-30T01:37:31.695Z,0
2017-08-30T01:38:31.625Z,0
2017-08-30T01:39:31.654Z,0
2017-08-30T01:40:31.608Z,0
2017-08-30T01:41:31.654Z,0
2017-08-30T01:42:31.658Z,0
2017-08-30T01:43:31.654Z,0
2017-08-30T01:44:31.632Z,0
2017-08-30T01:45:31.687Z,0
2017-08-30T01:46:31.687Z,0
2017-08-30T01:47:31.706Z,0
2017-08-30T01:48:31.706Z,0
2017-08-30T01:49:31.742Z,0
2017-08-30T01:50:31.693Z,0
2017-08-30T01:51:31.643Z,0
2017-08-30T01:52:31.692Z,0
2017-08-30T01:53:31.705Z,0
2017-08-30T01:54:31.647Z,0
2017-08-30T01:55:31.645Z,0
2017-08-30T01:56:31.648Z,0
2017-08-30T01:57:31.663Z,0
2017-08-30T01:58:31.660Z,0
2017-08-30T01:59:31.663Z,0
2017-08-30T02:00:31.612Z,0
2017-08-30T02:01:31.629Z,0
2017-08-30T02:02:31.617Z,0
2017-08-30T02:03:31.645Z,0
2017-08-30T02:04:31.672Z,0
2017-08-30T02:05:31.667Z,0
2017-08-30T02:06:31.641Z,0
2017-08-30T02:07:31.705Z,0
2017-08-30T02:08:31.648Z,0
2017-08-30T02:09:31.646Z,0
2017-08-30T02:10:31.670Z,0
2017-08-30T02:11:31.672Z,0
2017-08-30T02:12:31.679Z,0
2017-08-30T02:13:31.708Z,0
2017-08-30T02:14:31.674Z,0
2017-08-30T02:15:31.693Z,0
2017-08-30T02:16:31.711Z,0
2017-08-30T02:17:31.685Z,0
2017-08-30T02:18:31.655Z,0
2017-08-30T02:19:31.657Z,0
2017-08-30T02:20:31.755Z,0
2017-08-30T02:21:31.694Z,0
2017-08-30T02:22:31.728Z,0
2017-08-30T02:23:31.655Z,0
2017-08-30T02:24:31.711Z,0
2017-08-30T02:25:31.723Z,0
2017-08-30T02:26:31.654Z,0
2017-08-30T02:27:31.679Z,0
2017-08-30T02:28:31.680Z,0
2017-08-30T02:29:31.681Z,0
2017-08-30T02:30:31.655Z,0
2017-08-30T02:31:31.726Z,0
2017-08-30T02:32:31.688Z,0
2017-08-30T02:33:31.683Z,0
2017-08-30T02:34:31.692Z,0
2017-08-30T02:35:31.718Z,0
2017-08-30T02:36:31.721Z,0
2017-08-30T02:37:31.662Z,0
2017-08-30T02:38:31.722Z,0
2017-08-30T02:39:31.721Z,0
2017-08-30T02:40:31.663Z,0
2017-08-30T02:41:31.667Z,0
2017-08-30T02:42:31.691Z,0
2017-08-30T02:43:31.721Z,0
2017-08-30T02:44:31.664Z,0
2017-08-30T02:45:31.692Z,0
2017-08-30T02:46:31.691Z,0
2017-08-30T02:47:31.697Z,0
2017-08-30T02:48:31.668Z,0
2017-08-30T02:49:31.669Z,0
2017-08-30T02:50:31.733Z,0
2017-08-30T02:51:31.669Z,0
2017-08-30T02:52:31.697Z,0
2017-08-30T02:53:31.673Z,0
2017-08-30T02:54:31.699Z,0
2017-08-30T02:55:31.768Z,0
2017-08-30T02:56:31.706Z,0
2017-08-30T02:57:31.773Z,0
2017-08-30T02:58:31.705Z,0
2017-08-30T02:59:31.716Z,0
2017-08-30T03:00:31.750Z,0
2017-08-30T03:01:31.718Z,0
2017-08-30T03:02:31.755Z,0
2017-08-30T03:03:31.681Z,0
2017-08-30T03:04:31.763Z,0
2017-08-30T03:05:31.680Z,0
2017-08-30T03:06:31.681Z,0
2017-08-30T03:07:31.681Z,0
2017-08-30T03:08:31.743Z,0
2017-08-30T03:09:31.707Z,0
2017-08-30T03:10:31.683Z,0
2017-08-30T03:11:31.683Z,0
2017-08-30T03:12:31.706Z,0
2017-08-30T03:13:31.685Z,0
2017-08-30T03:14:31.711Z,0
2017-08-30T03:15:31.627Z,0
2017-08-30T03:16:31.686Z,0
2017-08-30T03:17:31.688Z,0
2017-08-30T03:18:31.708Z,0
2017-08-30T03:19:31.690Z,0
2017-08-30T03:20:31.675Z,0
2017-08-30T03:21:31.681Z,0
2017-08-30T03:22:31.689Z,0
2017-08-30T03:23:31.706Z,0
2017-08-30T03:24:31.704Z,0
2017-08-30T03:25:31.732Z,0
2017-08-30T03:26:31.793Z,0
2017-08-30T03:27:31.720Z,0
2017-08-30T03:28:31.704Z,0
2017-08-30T03:29:31.698Z,0
2017-08-30T03:30:31.790Z,0
2017-08-30T03:31:31.696Z,0
2017-08-30T03:32:31.791Z,0
2017-08-30T03:33:31.786Z,0
2017-08-30T03:34:31.697Z,0
2017-08-30T03:35:31.736Z,0
2017-08-30T03:36:31.794Z,0
2017-08-30T03:37:31.701Z,0
2017-08-30T03:38:31.778Z,0
2017-08-30T03:39:31.795Z,0
2017-08-30T03:40:31.720Z,0
2017-08-30T03:41:31.731Z,0
2017-08-30T03:42:31.744Z,0
2017-08-30T03:43:31.743Z,0
2017-08-30T03:44:31.736Z,0
2017-08-30T03:45:31.777Z,0
2017-08-30T03:46:31.758Z,0
2017-08-30T03:47:31.737Z,0
2017-08-30T03:48:31.761Z,0
2017-08-30T03:49:31.782Z,0
2017-08-30T03:50:31.799Z,0
2017-08-30T03:51:31.781Z,0
2017-08-30T03:52:31.801Z,0
2017-08-30T03:53:31.812Z,0
2017-08-30T03:54:31.743Z,0
2017-08-30T03:55:31.855Z,0
2017-08-30T03:56:31.717Z,0
2017-08-30T03:57:31.728Z,0
2017-08-30T03:58:31.735Z,0
2017-08-30T03:59:31.734Z,0
2017-08-30T04:00:31.736Z,0
2017-08-30T04:01:31.740Z,0
2017-08-30T04:02:31.730Z,0
2017-08-30T04:03:31.703Z,0
2017-08-30T04:04:31.722Z,0
2017-08-30T04:05:31.797Z,0
2017-08-30T04:06:31.711Z,0
2017-08-30T04:07:31.715Z,0
2017-08-30T04:08:31.716Z,5
2017-08-30T04:09:31.745Z,5
2017-08-30T04:10:31.717Z,5
2017-08-30T04:11:31.711Z,5
2017-08-30T04:12:31.745Z,5
2017-08-30T04:13:31.746Z,11
2017-08-30T04:14:31.779Z,11
2017-08-30T04:15:31.747Z,11
2017-08-30T04:16:31.731Z,16
2017-08-30T04:17:31.796Z,16
2017-08-30T04:18:31.799Z,16
2017-08-30T04:19:31.794Z,22
2017-08-30T04:20:31.821Z,22
2017-08-30T04:21:31.800Z,28
2017-08-30T04:22:31.765Z,28
2017-08-30T04:23:31.828Z,33
2017-08-30T04:24:31.824Z,33
2017-08-30T04:25:31.821Z,39
2017-08-30T04:26:31.768Z,39
2017-08-30T04:27:31.760Z,45
2017-08-30T04:28:31.758Z,45
2017-08-30T04:29:31.796Z,50
2017-08-30T04:30:31.758Z,50
2017-08-30T04:31:31.831Z,56
2017-08-30T04:32:31.761Z,56
2017-08-30T04:33:31.776Z,61
2017-08-30T04:34:31.772Z,67
2017-08-30T04:35:31.794Z,67
2017-08-30T04:36:31.731Z,73
2017-08-30T04:37:31.730Z,78
2017-08-30T04:38:31.731Z,84
2017-08-30T04:39:31.759Z,90
2017-08-30T04:40:31.761Z,95
2017-08-30T04:41:31.763Z,101
2017-08-30T04:42:31.794Z,112
2017-08-30T04:43:31.763Z,118
2017-08-30T04:44:31.760Z,129
2017-08-30T04:45:31.756Z,140
2017-08-30T04:46:31.737Z,146
2017-08-30T04:47:31.679Z,157
2017-08-30T04:48:31.737Z,168
2017-08-30T04:49:31.758Z,174
2017-08-30T04:50:31.710Z,185
2017-08-30T04:51:31.683Z,196
2017-08-30T04:52:31.793Z,202
2017-08-30T04:53:31.759Z,208
2017-08-30T04:54:31.792Z,219
2017-08-30T04:55:31.718Z,230
2017-08-30T04:56:31.761Z,236
2017-08-30T04:57:31.745Z,247
2017-08-30T04:58:31.743Z,258
2017-08-30T04:59:31.762Z,270
2017-08-30T05:00:31.770Z,281
2017-08-30T05:01:31.770Z,286
2017-08-30T05:02:31.764Z,298
2017-08-30T05:03:31.758Z,309
2017-08-30T05:04:31.751Z,320
2017-08-30T05:05:31.765Z,326
2017-08-30T05:06:31.783Z,343
2017-08-30T05:07:31.792Z,348
2017-08-30T05:08:31.760Z,354
2017-08-30T05:09:31.839Z,365
2017-08-30T05:10:31.757Z,371
2017-08-30T05:11:31.758Z,376
2017-08-30T05:12:31.795Z,388
2017-08-30T05:13:31.842Z,393
2017-08-30T05:14:31.758Z,405
2017-08-30T05:15:31.833Z,410
2017-08-30T05:16:31.767Z,416
2017-08-30T05:17:31.760Z,427
2017-08-30T05:18:31.768Z,433
2017-08-30T05:19:31.760Z,438
2017-08-30T05:20:31.760Z,450
2017-08-30T05:21:31.755Z,455
2017-08-30T05:22:31.761Z,461
2017-08-30T05:23:31.761Z,466
2017-08-30T05:24:31.756Z,478
2017-08-30T05:25:31.762Z,483
2017-08-30T05:26:31.768Z,495
2017-08-30T05:27:31.803Z,500
2017-08-30T05:28:31.801Z,511
2017-08-30T05:29:31.778Z,517
2017-08-30T05:30:31.842Z,523
2017-08-30T05:31:31.803Z,534
2017-08-30T05:32:31.805Z,540
2017-08-30T05:33:31.867Z,551
2017-08-30T05:34:31.769Z,556
2017-08-30T05:35:31.793Z,556
2017-08-30T05:36:31.802Z,568
2017-08-30T05:37:31.770Z,573
2017-08-30T05:38:31.776Z,579
2017-08-30T05:39:31.774Z,590
2017-08-30T05:40:31.776Z,601
2017-08-30T05:41:31.841Z,607
2017-08-30T05:42:31.780Z,613
2017-08-30T05:43:31.778Z,624
2017-08-30T05:44:31.827Z,630
2017-08-30T05:45:31.867Z,646
2017-08-30T05:46:31.803Z,652
2017-08-30T05:47:31.797Z,663
2017-08-30T05:48:31.755Z,731
2017-08-30T05:49:31.835Z,939
2017-08-30T05:50:31.811Z,1023
2017-08-30T05:51:31.752Z,1046
2017-08-30T05:52:31.806Z,1063
2017-08-30T05:53:31.844Z,1091
2017-08-30T05:54:31.795Z,1113
2017-08-30T05:55:31.800Z,1136
2017-08-30T05:56:31.820Z,1158
2017-08-30T05:57:31.822Z,1175
2017-08-30T05:58:31.821Z,1203
2017-08-30T05:59:31.812Z,1237
2017-08-30T06:00:31.838Z,1276
2017-08-30T06:01:31.817Z,1293
2017-08-30T06:02:31.879Z,1288
2017-08-30T06:03:31.792Z,1288
2017-08-30T06:04:31.869Z,1305
2017-08-30T06:05:31.826Z,1316
2017-08-30T06:06:31.861Z,1338
2017-08-30T06:07:31.851Z,1350
2017-08-30T06:08:31.823Z,1350
2017-08-30T06:09:31.862Z,1344
2017-08-30T06:10:31.790Z,1333
2017-08-30T06:11:31.830Z,1316
2017-08-30T06:12:31.822Z,1316
2017-08-30T06:13:31.859Z,1321
2017-08-30T06:14:31.816Z,1338
2017-08-30T06:15:31.816Z,1361
2017-08-30T06:16:31.868Z,1400
2017-08-30T06:17:31.861Z,1451
2017-08-30T06:18:31.796Z,1468
2017-08-30T06:19:31.863Z,1490
2017-08-30T06:20:31.803Z,1507
2017-08-30T06:21:31.822Z,1524
2017-08-30T06:22:31.805Z,1546
2017-08-30T06:23:31.837Z,1552
2017-08-30T06:24:31.836Z,1541
2017-08-30T06:25:31.838Z,1524
2017-08-30T06:26:31.859Z,1507
2017-08-30T06:27:31.794Z,1501
2017-08-30T06:28:31.826Z,1507
2017-08-30T06:29:31.860Z,1501
2017-08-30T06:30:31.794Z,1518
2017-08-30T06:31:31.824Z,1541
2017-08-30T06:32:31.797Z,1586
2017-08-30T06:33:31.865Z,1608
2017-08-30T06:34:31.825Z,1636
2017-08-30T06:35:31.865Z,1665
2017-08-30T06:36:31.862Z,1687
2017-08-30T06:37:31.861Z,1698
2017-08-30T06:38:31.833Z,1715
2017-08-30T06:39:31.801Z,1732
2017-08-30T06:40:31.866Z,1749
2017-08-30T06:41:31.804Z,1760
2017-08-30T06:42:31.868Z,1783
2017-08-30T06:43:31.867Z,1800
2017-08-30T06:44:31.869Z,1805
2017-08-30T06:45:31.873Z,1822
2017-08-30T06:46:31.849Z,1828
2017-08-30T06:47:31.856Z,1839
2017-08-30T06:48:31.812Z,1850
2017-08-30T06:49:31.887Z,1873
2017-08-30T06:50:31.847Z,1890
2017-08-30T06:51:31.852Z,1901
2017-08-30T06:52:31.816Z,1906
2017-08-30T06:53:31.882Z,1918
2017-08-30T06:54:31.873Z,1923
2017-08-30T06:55:31.855Z,1929
2017-08-30T06:56:31.817Z,1935
2017-08-30T06:57:31.828Z,1940
2017-08-30T06:58:31.860Z,1957
2017-08-30T06:59:31.891Z,1991
2017-08-30T07:00:31.823Z,2008
2017-08-30T07:01:31.916Z,2013
2017-08-30T07:02:31.920Z,2036
2017-08-30T07:03:31.954Z,2047
2017-08-30T07:04:31.862Z,2053
2017-08-30T07:05:31.891Z,2053
2017-08-30T07:06:31.845Z,2058
2017-08-30T07:07:31.846Z,2070
2017-08-30T07:08:31.845Z,2098
2017-08-30T07:09:31.879Z,2103
2017-08-30T07:10:31.846Z,2115
2017-08-30T07:11:31.883Z,2109
2017-08-30T07:12:31.849Z,2115
2017-08-30T07:13:31.845Z,2311
2017-08-30T07:14:31.885Z,2520
2017-08-30T07:15:31.849Z,2531
2017-08-30T07:16:31.993Z,2070
2017-08-30T07:17:31.890Z,2120
2017-08-30T07:18:31.896Z,2160
2017-08-30T07:19:31.894Z,2193
2017-08-30T07:20:31.913Z,2188
2017-08-30T07:21:31.866Z,2160
2017-08-30T07:22:31.857Z,2278
2017-08-30T07:23:31.867Z,2278
2017-08-30T07:24:31.892Z,2283
2017-08-30T07:25:31.867Z,2295
2017-08-30T07:26:31.775Z,2295
2017-08-30T07:27:31.849Z,2311
2017-08-30T07:28:31.894Z,2306
2017-08-30T07:29:31.852Z,2289
2017-08-30T07:30:31.815Z,2047
2017-08-30T07:31:31.773Z,2306
2017-08-30T07:32:31.805Z,2323
2017-08-30T07:33:31.824Z,2351
2017-08-30T07:34:31.850Z,2362
2017-08-30T07:35:31.828Z,2390
2017-08-30T07:36:31.863Z,2396
2017-08-30T07:37:31.882Z,2418
2017-08-30T07:38:31.881Z,2446
2017-08-30T07:39:31.841Z,2458
2017-08-30T07:40:31.865Z,2446
2017-08-30T07:41:31.877Z,2469
2017-08-30T07:42:31.852Z,2508
2017-08-30T07:43:31.933Z,2536
2017-08-30T07:44:31.877Z,2548
2017-08-30T07:45:31.881Z,2565
2017-08-30T07:46:31.865Z,2570
2017-08-30T07:47:31.840Z,2581
2017-08-30T07:48:31.866Z,2576
2017-08-30T07:50:31.863Z,2598
2017-08-30T07:51:31.905Z,2598
2017-08-30T07:52:31.905Z,2615
2017-08-30T07:53:31.870Z,2632
2017-08-30T07:54:31.904Z,2660
2017-08-30T07:55:31.912Z,2705
2017-08-30T07:56:31.878Z,2728
2017-08-30T07:57:31.908Z,2750
2017-08-30T07:58:31.910Z,2778
2017-08-30T07:59:31.846Z,2801
2017-08-30T08:00:31.876Z,2835
2017-08-30T08:01:31.907Z,2818
2017-08-30T08:02:31.915Z,2818
2017-08-30T08:03:31.849Z,2851
2017-08-30T08:04:31.888Z,2919
2017-08-30T08:05:31.910Z,2941
2017-08-30T08:06:31.843Z,2981
2017-08-30T08:07:31.930Z,3065
2017-08-30T08:08:31.918Z,3144
2017-08-30T08:09:31.849Z,3121
2017-08-30T08:10:31.844Z,2919
2017-08-30T08:11:31.915Z,2446
2017-08-30T08:12:31.850Z,2970
2017-08-30T08:13:31.854Z,2874
2017-08-30T08:14:31.884Z,2700
2017-08-30T08:15:31.856Z,3088
2017-08-30T08:16:31.935Z,3127
2017-08-30T08:17:31.902Z,3076
2017-08-30T08:18:31.893Z,3088
2017-08-30T08:19:31.933Z,3031
2017-08-30T08:20:31.951Z,3071
2017-08-30T08:21:31.870Z,2666
2017-08-30T08:22:31.885Z,3015
2017-08-30T08:23:31.895Z,3121
2017-08-30T08:24:31.902Z,2998
2017-08-30T08:25:31.909Z,3093
2017-08-30T08:26:31.870Z,2925
2017-08-30T08:27:31.874Z,2795
2017-08-30T08:28:31.898Z,2964
2017-08-30T08:29:31.906Z,3037
2017-08-30T08:30:31.899Z,3133
2017-08-30T08:31:31.901Z,3121
2017-08-30T08:32:31.896Z,2930
2017-08-30T08:33:31.880Z,2851
2017-08-30T08:34:31.893Z,3144
2017-08-30T08:35:31.928Z,3273
2017-08-30T08:36:31.948Z,3256
2017-08-30T08:37:31.910Z,3166
2017-08-30T08:38:31.883Z,3116
2017-08-30T08:39:31.879Z,3082
2017-08-30T08:40:31.967Z,2840
2017-08-30T08:41:31.908Z,3133
2017-08-30T08:42:31.906Z,3420
2017-08-30T08:43:31.904Z,3358
2017-08-30T08:44:31.968Z,3234
2017-08-30T08:45:31.939Z,3172
2017-08-30T08:46:31.933Z,3189
2017-08-30T08:47:31.943Z,3352
2017-08-30T08:48:31.877Z,3290
2017-08-30T08:49:31.866Z,3330
2017-08-30T08:50:31.906Z,3431
2017-08-30T08:51:31.938Z,3526
2017-08-30T08:52:31.910Z,3532
2017-08-30T08:53:31.905Z,3577
2017-08-30T08:54:31.939Z,3628
2017-08-30T08:55:31.887Z,3650
2017-08-30T08:56:31.915Z,3571
2017-08-30T08:57:31.942Z,3600
2017-08-30T08:58:31.912Z,3656
2017-08-30T08:59:31.884Z,3594
2017-08-30T09:00:31.910Z,3391
2017-08-30T09:01:31.945Z,3436
2017-08-30T09:02:31.913Z,3144
2017-08-30T09:03:31.884Z,2964
2017-08-30T09:04:31.912Z,2840
2017-08-30T09:05:31.915Z,2891
2017-08-30T09:06:31.884Z,3003
2017-08-30T09:07:31.917Z,3133
2017-08-30T09:08:31.949Z,3121
2017-08-30T09:09:31.977Z,3307
2017-08-30T09:10:31.948Z,3391
2017-08-30T09:11:31.927Z,3532
2017-08-30T09:12:31.949Z,3549
2017-08-30T09:13:31.924Z,3397
2017-08-30T09:14:31.923Z,3690
2017-08-30T09:15:31.983Z,3847
2017-08-30T09:16:31.924Z,3661
2017-08-30T09:17:31.954Z,4005
2017-08-30T09:18:31.890Z,3909
2017-08-30T09:19:31.923Z,3836
2017-08-30T09:20:31.923Z,3892
2017-08-30T09:21:31.953Z,3920
2017-08-30T09:22:31.923Z,3661
2017-08-30T09:23:31.888Z,3273
2017-08-30T09:24:31.893Z,3285
2017-08-30T09:25:31.897Z,3532
2017-08-30T09:26:31.925Z,3611
2017-08-30T09:27:31.805Z,3870
2017-08-30T09:28:31.900Z,4072
2017-08-30T09:29:31.900Z,3825
2017-08-30T09:30:31.884Z,3414
2017-08-30T09:31:31.898Z,3645
2017-08-30T09:32:31.898Z,3712
2017-08-30T09:33:31.867Z,3521
2017-08-30T09:34:31.809Z,3780
2017-08-30T09:35:31.812Z,3566
2017-08-30T09:36:31.901Z,3757
2017-08-30T09:37:31.943Z,3600
2017-08-30T09:38:31.931Z,3526
2017-08-30T09:39:31.915Z,3600
2017-08-30T09:40:31.977Z,3346
2017-08-30T09:41:32.000Z,3082
2017-08-30T09:42:32.005Z,3003
2017-08-30T09:43:31.975Z,3555
2017-08-30T09:44:31.948Z,4128
2017-08-30T09:45:31.917Z,4111
2017-08-30T09:46:31.958Z,4156
2017-08-30T09:47:31.920Z,4246
2017-08-30T09:48:31.952Z,4050
2017-08-30T09:49:32.046Z,3858
2017-08-30T09:50:31.920Z,3538
2017-08-30T09:51:32.005Z,3127
2017-08-30T09:52:32.010Z,2880
2017-08-30T09:53:31.984Z,3285
2017-08-30T09:54:31.926Z,3729
2017-08-30T09:55:31.982Z,3988
2017-08-30T09:56:31.945Z,3729
2017-08-30T09:57:31.947Z,3808
2017-08-30T09:58:32.019Z,3363
2017-08-30T09:59:32.015Z,2728
2017-08-30T10:00:32.018Z,2880
2017-08-30T10:01:31.945Z,2885
2017-08-30T10:02:31.961Z,3285
2017-08-30T10:03:32.015Z,3375
2017-08-30T10:04:31.967Z,3808
2017-08-30T10:05:32.017Z,4381
2017-08-30T10:06:31.995Z,3903
2017-08-30T10:07:32.004Z,3408
2017-08-30T10:08:31.922Z,3825
2017-08-30T10:09:31.922Z,3993
2017-08-30T10:10:31.917Z,3380
2017-08-30T10:11:31.988Z,3768
2017-08-30T10:12:31.985Z,3622
2017-08-30T10:13:31.927Z,3352
2017-08-30T10:14:31.955Z,3335
2017-08-30T10:15:31.960Z,2930
2017-08-30T10:16:31.954Z,3279
2017-08-30T10:17:31.939Z,3386
2017-08-30T10:18:32.024Z,3926
2017-08-30T10:19:31.941Z,4168
2017-08-30T10:20:31.998Z,3408
2017-08-30T10:21:31.974Z,3363
2017-08-30T10:22:31.940Z,3712
2017-08-30T10:23:32.026Z,3605
2017-08-30T10:24:31.976Z,3150
2017-08-30T10:25:31.981Z,2919
2017-08-30T10:26:31.968Z,2953
2017-08-30T10:27:31.998Z,2936
2017-08-30T10:28:31.965Z,2919
2017-08-30T10:29:32.018Z,3431
2017-08-30T10:30:31.964Z,3768
2017-08-30T10:31:31.997Z,3898
2017-08-30T10:32:31.962Z,3847
2017-08-30T10:33:31.941Z,3701
2017-08-30T10:34:32.001Z,3948
2017-08-30T10:35:32.006Z,3937
2017-08-30T10:36:31.940Z,4308
2017-08-30T10:37:32.008Z,4336
2017-08-30T10:38:31.974Z,4280
2017-08-30T10:39:31.936Z,4353
2017-08-30T10:40:31.937Z,4500
2017-08-30T10:41:31.942Z,4522
2017-08-30T10:42:31.938Z,4190
2017-08-30T10:43:31.972Z,4078
2017-08-30T10:44:32.012Z,4083
2017-08-30T10:45:32.031Z,4224
2017-08-30T10:46:32.005Z,4533
2017-08-30T10:47:31.940Z,4303
2017-08-30T10:48:31.975Z,3993
2017-08-30T10:49:31.946Z,4185
2017-08-30T10:50:31.945Z,4500
2017-08-30T10:51:31.948Z,4533
2017-08-30T10:52:32.008Z,4505
2017-08-30T10:53:32.003Z,4646
2017-08-30T10:54:32.014Z,4601
2017-08-30T10:55:31.979Z,4466
2017-08-30T10:56:31.948Z,4353
2017-08-30T10:57:32.044Z,4258
2017-08-30T10:58:31.959Z,4005
2017-08-30T10:59:32.069Z,4106
2017-08-30T11:00:32.035Z,3971
2017-08-30T11:01:32.077Z,3875
2017-08-30T11:02:32.023Z,4117
2017-08-30T11:03:31.965Z,4095
2017-08-30T11:04:31.988Z,3870
2017-08-30T11:05:32.045Z,3380
2017-08-30T11:06:32.005Z,3825
2017-08-30T11:07:32.056Z,4134
2017-08-30T11:08:31.972Z,4533
2017-08-30T11:09:31.969Z,4404
2017-08-30T11:10:31.993Z,3903
2017-08-30T11:11:31.978Z,3133
2017-08-30T11:12:31.942Z,3909
2017-08-30T11:13:31.992Z,3549
2017-08-30T11:14:31.991Z,3813
2017-08-30T11:15:31.938Z,3195
2017-08-30T11:16:31.977Z,3330
2017-08-30T11:17:32.011Z,3279
2017-08-30T11:18:32.006Z,3256
2017-08-30T11:19:32.031Z,3667
2017-08-30T11:20:31.973Z,3690
2017-08-30T11:21:32.038Z,3937
2017-08-30T11:22:32.035Z,3931
2017-08-30T11:23:31.995Z,4134
2017-08-30T11:24:31.975Z,4708
2017-08-30T11:25:32.067Z,4809
2017-08-30T11:26:31.984Z,4860
2017-08-30T11:27:32.001Z,4978
2017-08-30T11:28:32.051Z,4882
2017-08-30T11:29:32.107Z,4415
2017-08-30T11:30:32.044Z,4477
2017-08-30T11:31:32.017Z,4747
2017-08-30T11:32:32.072Z,4466
2017-08-30T11:33:31.984Z,4466
2017-08-30T11:34:31.986Z,4483
2017-08-30T11:35:32.049Z,4269
2017-08-30T11:36:32.037Z,4145
2017-08-30T11:37:31.986Z,4123
2017-08-30T11:38:32.024Z,4061
2017-08-30T11:39:32.005Z,4123
2017-08-30T11:40:32.013Z,4275
2017-08-30T11:41:32.023Z,4455
2017-08-30T11:42:32.049Z,4606
2017-08-30T11:43:31.997Z,4713
2017-08-30T11:44:32.080Z,4331
2017-08-30T11:45:32.014Z,3960
2017-08-30T11:46:31.988Z,4533
2017-08-30T11:47:32.043Z,4325
2017-08-30T11:48:32.091Z,4297
2017-08-30T11:49:32.023Z,4213
2017-08-30T11:50:32.054Z,4348
2017-08-30T11:51:31.999Z,4494
2017-08-30T11:52:32.030Z,4539
2017-08-30T11:53:32.014Z,4455
2017-08-30T11:54:31.995Z,4410
2017-08-30T11:55:32.031Z,4449
2017-08-30T11:56:32.016Z,4522
2017-08-30T11:57:32.050Z,4494
2017-08-30T11:58:31.985Z,4297
2017-08-30T11:59:31.987Z,4044
2017-08-30T12:00:32.050Z,4123
2017-08-30T12:01:31.986Z,3898
2017-08-30T12:02:32.054Z,3442
2017-08-30T12:03:32.052Z,3746
2017-08-30T12:04:31.993Z,3853
2017-08-30T12:05:32.025Z,3735
2017-08-30T12:06:32.059Z,3633
2017-08-30T12:07:31.969Z,3819
2017-08-30T12:08:31.998Z,4196
2017-08-30T12:09:32.011Z,4387
2017-08-30T12:10:31.999Z,4415
2017-08-30T12:11:31.979Z,4404
2017-08-30T12:12:32.023Z,4297
2017-08-30T12:13:31.956Z,4168
2017-08-30T12:14:32.029Z,4066
2017-08-30T12:15:32.010Z,3960
2017-08-30T12:16:32.029Z,3920
2017-08-30T12:17:32.025Z,3712
2017-08-30T12:18:32.027Z,3881
2017-08-30T12:19:32.018Z,4010
2017-08-30T12:20:32.019Z,4106
2017-08-30T12:21:32.016Z,3965
2017-08-30T12:22:32.013Z,4218
2017-08-30T12:23:31.986Z,4252
2017-08-30T12:24:31.990Z,4185
2017-08-30T12:25:32.020Z,4055
2017-08-30T12:26:31.986Z,4089
2017-08-30T12:27:32.035Z,4061
2017-08-30T12:28:32.008Z,4156
2017-08-30T12:29:31.999Z,4185
2017-08-30T12:30:32.070Z,4072
2017-08-30T12:31:32.039Z,3729
2017-08-30T12:32:32.033Z,3971
2017-08-30T12:33:32.009Z,3982
2017-08-30T12:34:32.011Z,4061
2017-08-30T12:35:32.073Z,3875
2017-08-30T12:36:32.040Z,3813
2017-08-30T12:37:32.073Z,3690
2017-08-30T12:38:32.010Z,3830
2017-08-30T12:39:32.009Z,3915
2017-08-30T12:40:32.042Z,3960
2017-08-30T12:41:32.079Z,3920
2017-08-30T12:42:32.043Z,3948
2017-08-30T12:43:32.044Z,3915
2017-08-30T12:44:32.098Z,2559
2017-08-30T12:45:32.014Z,2401
2017-08-30T12:46:32.011Z,2334
2017-08-30T12:47:32.024Z,3301
2017-08-30T12:48:32.022Z,3886
2017-08-30T12:49:32.024Z,4134
2017-08-30T12:50:32.043Z,4263
2017-08-30T12:51:32.012Z,3268
2017-08-30T12:52:32.040Z,3690
2017-08-30T12:53:31.965Z,3780
2017-08-30T12:54:31.974Z,3836
2017-08-30T12:55:32.047Z,3425
2017-08-30T12:56:32.038Z,3695
2017-08-30T12:57:32.087Z,3240
2017-08-30T12:58:32.043Z,3881
2017-08-30T12:59:32.031Z,3673
2017-08-30T13:00:32.088Z,3600
2017-08-30T13:01:32.024Z,3526
2017-08-30T13:02:32.054Z,3341
2017-08-30T13:03:32.092Z,3549
2017-08-30T13:04:32.059Z,3560
2017-08-30T13:05:32.031Z,4269
2017-08-30T13:06:32.087Z,4500
2017-08-30T13:07:32.038Z,4460
2017-08-30T13:08:32.071Z,4241
2017-08-30T13:09:32.132Z,4021
2017-08-30T13:10:32.064Z,4263
2017-08-30T13:11:32.136Z,4213
2017-08-30T13:12:32.097Z,4134
2017-08-30T13:13:32.072Z,4027
2017-08-30T13:14:32.043Z,2441
2017-08-30T13:15:32.041Z,2941
2017-08-30T13:16:32.067Z,3223
2017-08-30T13:17:32.071Z,4190
2017-08-30T13:18:32.104Z,3695
2017-08-30T13:19:32.098Z,4066
2017-08-30T13:20:32.098Z,3960
2017-08-30T13:21:32.037Z,3931
2017-08-30T13:22:32.101Z,3695
2017-08-30T13:23:32.066Z,3549
2017-08-30T13:24:32.207Z,3020
2017-08-30T13:25:32.037Z,3459
2017-08-30T13:26:32.102Z,2536
2017-08-30T13:27:32.099Z,2458
2017-08-30T13:28:32.063Z,2795
2017-08-30T13:29:32.095Z,2694
2017-08-30T13:30:32.053Z,2587
2017-08-30T13:31:32.109Z,2452
2017-08-30T13:32:32.014Z,2401
2017-08-30T13:33:32.054Z,2233
2017-08-30T13:34:32.066Z,2176
2017-08-30T13:35:32.073Z,2008
2017-08-30T13:36:32.067Z,2205
2017-08-30T13:37:32.032Z,2176
2017-08-30T13:38:32.112Z,1968
2017-08-30T13:39:32.089Z,2013
2017-08-30T13:40:32.114Z,2131
2017-08-30T13:41:32.060Z,2694
2017-08-30T13:42:32.146Z,2767
2017-08-30T13:43:32.125Z,2829
2017-08-30T13:44:32.094Z,2936
2017-08-30T13:45:32.155Z,2925
2017-08-30T13:46:32.079Z,2913
2017-08-30T13:47:32.063Z,2947
2017-08-30T13:48:32.050Z,3048